Time;durP1;ratioP1;P1;durP2;ratioP2;P2;SDS_P1;SDS_P2;PMS_P1;PMS_P2;Temp;Humidity;BMP_temperature;BMP_pressure;BME280_temperature;BME280_humidity;BME280_pressure;Samples;Min_cycle;Max_cycle;Signal;HPM_P1;HPM_P2
2023/08/12 00:02:30;;;;;;;15.20;8.30;;;;;;;16.67;100.00;100792.10;181215;1256;44006;-84
2023/08/12 00:06:33;;;;;;;16.30;9.00;;;;;;;16.67;100.00;100791.86;181284;1256;57914;-84
2023/08/12 00:10:36;;;;;;;11.30;7.50;;;;;;;16.68;100.00;100790.51;181140;1259;44064;-84
2023/08/12 00:14:40;;;;;;;13.10;9.80;;;;;;;16.69;100.00;100785.42;181234;1255;43797;-88
2023/08/12 00:18:44;;;;;;;12.40;8.90;;;;;;;16.67;100.00;100780.42;181146;1259;44164;-89
2023/08/12 00:22:47;;;;;;;16.30;10.80;;;;;;;16.64;100.00;100768.38;181042;1259;43820;-89
2023/08/12 00:26:51;;;;;;;14.30;11.50;;;;;;;16.63;100.00;100758.67;181181;1259;58239;-89
2023/08/12 00:30:54;;;;;;;15.00;9.80;;;;;;;16.64;100.00;100762.67;181123;1258;44206;-89
2023/08/12 00:34:58;;;;;;;15.10;10.20;;;;;;;16.62;100.00;100762.19;181093;1259;47897;-89
2023/08/12 00:39:03;;;;;;;17.70;10.90;;;;;;;16.62;100.00;100765.18;181270;1259;43715;-89
2023/08/12 00:43:09;;;;;;;14.80;9.90;;;;;;;16.65;100.00;100759.48;181160;1257;43730;-89
2023/08/12 00:47:12;;;;;;;15.70;11.20;;;;;;;16.67;100.00;100763.59;181253;1258;58727;-89
2023/08/12 00:51:17;;;;;;;13.60;9.60;;;;;;;16.70;100.00;100763.86;181143;1259;44132;-88
2023/08/12 00:55:21;;;;;;;13.80;9.70;;;;;;;16.69;100.00;100753.77;181125;1258;43835;-87
2023/08/12 00:59:25;;;;;;;13.70;10.40;;;;;;;16.67;100.00;100749.80;181282;1258;43988;-89
2023/08/12 01:03:30;;;;;;;11.30;9.40;;;;;;;16.68;100.00;100748.09;181255;1259;43990;-89
2023/08/12 01:07:34;;;;;;;18.90;10.30;;;;;;;16.65;100.00;100742.65;181206;1258;58297;-88
2023/08/12 01:11:55;;;;;;;14.00;9.90;;;;;;;16.64;100.00;100742.60;181311;1259;43746;-90
2023/08/12 01:16:03;;;;;;;12.50;7.50;;;;;;;16.58;100.00;100729.65;181270;1258;44166;-90
2023/08/12 01:20:08;;;;;;;13.40;10.20;;;;;;;16.48;100.00;100727.05;181188;1258;43913;-90
2023/08/12 01:24:12;;;;;;;15.80;9.20;;;;;;;16.40;100.00;100729.56;181151;1259;44103;-90
2023/08/12 01:28:15;;;;;;;13.90;10.10;;;;;;;16.37;100.00;100728.26;181194;1258;60251;-90
2023/08/12 01:32:41;;;;;;;18.20;11.20;;;;;;;16.33;100.00;100725.48;181141;1259;44411;-90
2023/08/12 01:36:54;;;;;;;16.40;10.00;;;;;;;16.28;100.00;100731.46;181216;1259;43931;-90
2023/08/12 01:41:00;;;;;;;11.70;8.10;;;;;;;16.27;100.00;100728.91;181171;1259;44183;-90
2023/08/12 01:45:04;;;;;;;12.20;9.20;;;;;;;16.21;100.00;100725.89;181179;1256;43768;-89
2023/08/12 01:49:07;;;;;;;14.50;9.30;;;;;;;16.17;100.00;100723.09;181183;1258;58223;-90
2023/08/12 01:53:11;;;;;;;22.20;10.30;;;;;;;16.18;100.00;100719.64;181150;1259;43768;-89
2023/08/12 01:57:14;;;;;;;14.70;9.00;;;;;;;16.19;100.00;100723.62;181245;1256;43936;-89
2023/08/12 02:01:17;;;;;;;12.50;9.60;;;;;;;16.16;100.00;100726.64;181226;1256;43883;-90
2023/08/12 02:05:21;;;;;;;11.80;8.60;;;;;;;16.17;100.00;100723.54;181135;1256;43733;-89
2023/08/12 02:09:24;;;;;;;14.80;8.50;;;;;;;16.09;100.00;100730.46;181182;1258;58582;-90
2023/08/12 02:13:27;;;;;;;13.90;9.30;;;;;;;16.06;100.00;100727.04;181229;1256;44089;-90
2023/08/12 02:17:31;;;;;;;14.60;8.50;;;;;;;16.05;100.00;100725.15;181201;1259;44063;-90
2023/08/12 02:21:34;;;;;;;13.60;9.20;;;;;;;16.04;100.00;100720.41;181190;1258;44136;-90
2023/08/12 02:25:38;;;;;;;9.90;7.90;;;;;;;16.05;100.00;100720.13;181115;1260;44302;-90
2023/08/12 02:29:41;;;;;;;14.00;8.50;;;;;;;15.98;100.00;100720.25;181178;1259;59710;-89
2023/08/12 02:33:45;;;;;;;13.80;10.10;;;;;;;15.95;100.00;100712.58;181279;1257;44424;-90
2023/08/12 02:37:49;;;;;;;13.40;9.70;;;;;;;15.92;100.00;100714.24;181187;1258;43784;-90
2023/08/12 02:41:52;;;;;;;14.70;8.50;;;;;;;15.91;100.00;100709.36;181231;1257;44154;-90
2023/08/12 02:45:56;;;;;;;17.70;10.60;;;;;;;15.87;100.00;100705.60;181243;1258;43833;-90
2023/08/12 02:49:59;;;;;;;15.40;10.40;;;;;;;15.85;100.00;100707.73;181417;1258;58211;-90
2023/08/12 02:54:03;;;;;;;16.30;10.50;;;;;;;15.87;100.00;100710.61;181224;1258;43829;-90
2023/08/12 02:58:07;;;;;;;17.20;9.90;;;;;;;15.89;100.00;100714.05;181329;1258;44076;-89
2023/08/12 03:02:11;;;;;;;14.00;10.10;;;;;;;15.83;100.00;100712.20;181134;1256;43975;-90
2023/08/12 03:06:14;;;;;;;12.20;10.00;;;;;;;15.74;100.00;100709.89;181251;1259;43874;-90
2023/08/12 03:10:18;;;;;;;12.50;9.90;;;;;;;15.63;100.00;100704.63;181206;1259;57333;-90
2023/08/12 03:14:23;;;;;;;14.80;10.30;;;;;;;15.57;100.00;100703.81;181221;1258;44459;-89
2023/08/12 03:18:27;;;;;;;9.60;8.30;;;;;;;15.50;100.00;100707.13;181326;1258;44004;-90
2023/08/12 03:22:31;;;;;;;12.60;9.10;;;;;;;15.40;100.00;100706.00;181171;1258;43914;-90
2023/08/12 03:26:34;;;;;;;16.40;10.30;;;;;;;15.37;100.00;100709.35;181202;1256;43837;-90
2023/08/12 03:30:37;;;;;;;10.90;8.90;;;;;;;15.39;100.00;100711.09;181203;1259;59584;-90
2023/08/12 03:34:41;;;;;;;21.80;12.20;;;;;;;15.36;100.00;100708.84;181236;1258;44253;-90
2023/08/12 03:38:44;;;;;;;10.50;9.40;;;;;;;15.35;100.00;100708.05;181142;1258;44054;-90
2023/08/12 03:42:47;;;;;;;13.50;10.20;;;;;;;15.33;100.00;100707.69;181216;1259;43989;-89
2023/08/12 03:46:51;;;;;;;14.20;8.70;;;;;;;15.26;100.00;100702.98;181134;1257;44084;-89
2023/08/12 03:50:54;;;;;;;8.90;7.70;;;;;;;15.23;100.00;100700.95;181218;1258;59616;-90
2023/08/12 03:54:58;;;;;;;11.00;8.40;;;;;;;15.23;100.00;100702.73;181412;1256;43785;-90
2023/08/12 03:59:01;;;;;;;9.70;8.50;;;;;;;15.26;100.00;100704.94;181129;1259;44385;-90
2023/08/12 04:03:05;;;;;;;9.40;7.90;;;;;;;15.28;100.00;100705.98;181255;1259;43829;-90
2023/08/12 04:07:09;;;;;;;10.60;8.50;;;;;;;15.32;100.00;100704.23;181362;1256;44038;-90
2023/08/12 04:11:14;;;;;;;9.30;7.60;;;;;;;15.35;100.00;100706.08;181227;1259;58460;-90
2023/08/12 04:15:18;;;;;;;8.00;7.20;;;;;;;15.38;100.00;100708.66;181269;1258;43789;-90
2023/08/12 04:19:22;;;;;;;11.40;8.90;;;;;;;15.53;100.00;100709.56;181143;1258;43805;-89
2023/08/12 04:23:26;;;;;;;9.70;7.50;;;;;;;15.75;100.00;100710.80;181261;1257;43724;-89
2023/08/12 04:27:29;;;;;;;10.70;6.70;;;;;;;15.92;100.00;100708.16;181236;1258;43935;-90
2023/08/12 04:31:33;;;;;;;14.90;9.80;;;;;;;16.07;100.00;100706.15;181276;1259;59594;-90
2023/08/12 04:35:38;;;;;;;12.60;8.60;;;;;;;16.56;100.00;100695.56;181300;1256;44328;-91
2023/08/12 04:39:43;;;;;;;;;;;;;;;17.42;100.00;100688.51;181294;1258;44083;-91
2023/08/12 04:43:47;;;;;;;9.00;7.80;;;;;;;18.20;100.00;100684.77;181347;1258;43892;-91
2023/08/12 04:47:51;;;;;;;10.60;6.40;;;;;;;18.99;100.00;100676.77;181317;1258;43732;-91
2023/08/12 04:51:54;;;;;;;10.50;6.00;;;;;;;19.53;98.59;100676.66;181300;1259;58241;-90
2023/08/12 04:55:58;;;;;;;15.00;7.00;;;;;;;19.84;95.90;100680.72;181098;1259;43930;-90
2023/08/12 05:00:02;;;;;;;23.40;5.60;;;;;;;19.97;94.50;100672.48;181150;1259;44324;-90
2023/08/12 05:04:07;;;;;;;10.70;6.10;;;;;;;19.89;94.75;100671.20;181213;1256;50130;-90
2023/08/12 05:08:10;;;;;;;40.80;29.70;;;;;;;19.82;95.07;100668.92;181156;1258;190368;-90
2023/08/12 05:12:14;;;;;;;26.90;24.50;;;;;;;20.01;95.31;100662.75;181207;1259;59503;-90
2023/08/12 05:16:17;;;;;;;31.70;28.60;;;;;;;20.49;93.31;100660.77;181256;1259;44178;-90
2023/08/12 05:20:21;;;;;;;7.10;6.50;;;;;;;20.93;91.96;100656.23;181191;1259;43847;-90
2023/08/12 05:24:25;;;;;;;8.50;6.30;;;;;;;21.35;87.70;100649.84;181073;1259;43776;-90
2023/08/12 05:28:28;;;;;;;7.20;5.30;;;;;;;21.42;87.44;100645.84;181147;1259;43871;-90
2023/08/12 05:32:32;;;;;;;10.10;6.40;;;;;;;21.41;88.24;100646.83;181039;1259;60065;-90
2023/08/12 05:36:36;;;;;;;14.80;6.10;;;;;;;21.29;88.72;100646.97;181129;1259;44085;-90
2023/08/12 05:40:39;;;;;;;7.20;4.60;;;;;;;21.24;88.91;100652.32;181265;1259;43795;-90
2023/08/12 05:44:44;;;;;;;9.90;6.50;;;;;;;21.09;89.41;100654.44;181178;1259;43924;-90
2023/08/12 05:48:48;;;;;;;34.40;22.50;;;;;;;21.03;90.81;100653.39;181152;1259;44071;-90
2023/08/12 05:52:51;;;;;;;13.50;8.70;;;;;;;21.25;92.18;100652.54;181130;1259;59288;-90
2023/08/12 05:56:55;;;;;;;6.50;5.00;;;;;;;21.91;90.72;100657.88;181222;1260;43969;-91
2023/08/12 06:00:59;;;;;;;8.80;4.20;;;;;;;22.28;86.34;100651.66;181149;1259;43739;-90
2023/08/12 06:05:02;;;;;;;6.40;4.20;;;;;;;22.36;86.40;100644.98;181169;1259;44139;-90
2023/08/12 06:09:06;;;;;;;9.30;5.60;;;;;;;22.47;86.09;100640.98;181108;1259;43806;-90
2023/08/12 06:13:09;;;;;;;4.70;4.10;;;;;;;22.50;86.55;100640.21;181035;1259;59544;-90
2023/08/12 06:17:13;;;;;;;5.30;4.60;;;;;;;22.56;85.93;100640.21;181183;1259;44240;-90
2023/08/12 06:21:16;;;;;;;10.70;4.80;;;;;;;22.59;85.89;100639.41;181215;1259;43728;-90
2023/08/12 06:25:20;;;;;;;6.80;4.50;;;;;;;22.45;87.39;100636.71;181218;1259;44149;-90
2023/08/12 06:29:23;;;;;;;4.00;3.60;;;;;;;22.50;87.56;100633.40;181134;1259;43894;-90
2023/08/12 06:33:27;;;;;;;5.40;3.40;;;;;;;22.86;88.09;100626.61;181060;1258;57532;-90
2023/08/12 06:37:30;;;;;;;5.90;3.40;;;;;;;23.29;85.87;100619.52;181071;1259;43803;-90
2023/08/12 06:41:34;;;;;;;4.60;3.30;;;;;;;23.77;83.96;100619.30;181142;1259;48033;-90
2023/08/12 06:45:38;;;;;;;5.60;3.60;;;;;;;24.28;81.21;100616.01;181074;1259;43743;-90
2023/08/12 06:49:42;;;;;;;5.20;3.30;;;;;;;24.76;78.13;100607.63;181079;1259;44268;-90
2023/08/12 06:53:46;;;;;;;3.30;3.00;;;;;;;25.07;77.33;100599.71;181051;1259;60452;-90
2023/08/12 06:57:50;;;;;;;9.80;3.80;;;;;;;25.27;75.97;100593.29;181108;1259;44034;-90
2023/08/12 07:01:54;;;;;;;4.30;3.70;;;;;;;25.61;73.49;100589.16;181089;1259;44173;-89
2023/08/12 07:05:57;;;;;;;6.00;3.10;;;;;;;25.92;71.49;100584.30;181135;1260;44250;-90
2023/08/12 07:10:01;;;;;;;7.30;3.00;;;;;;;26.20;70.51;100591.31;181028;1259;43762;-90
2023/08/12 07:14:06;;;;;;;6.30;2.90;;;;;;;26.44;70.40;100591.30;181135;1259;59299;-90
2023/08/12 07:18:12;;;;;;;43.00;7.20;;;;;;;26.44;69.22;100587.68;181246;1259;44081;-91
2023/08/12 07:22:19;;;;;;;3.60;3.10;;;;;;;26.38;68.64;100584.99;181121;1259;44049;-90
2023/08/12 07:26:22;;;;;;;2.60;1.80;;;;;;;26.40;69.89;100588.48;181184;1259;43897;-90
2023/08/12 07:30:26;;;;;;;7.60;3.60;;;;;;;26.57;68.61;100584.70;181159;1259;44173;-90
2023/08/12 07:34:30;;;;;;;3.60;3.20;;;;;;;26.75;68.60;100579.73;181068;1259;58257;-90
2023/08/12 07:38:36;;;;;;;3.60;3.30;;;;;;;26.99;66.78;100576.44;181162;1259;43899;-89
2023/08/12 07:42:39;;;;;;;5.50;2.90;;;;;;;27.27;67.40;100575.80;181116;1259;43847;-91
2023/08/12 07:46:44;;;;;;;3.30;2.50;;;;;;;27.46;66.69;100577.29;181223;1259;44198;-90
2023/08/12 07:50:55;;;;;;;2.40;2.10;;;;;;;27.52;65.93;100575.22;181176;1259;43994;-90
2023/08/12 07:54:58;;;;;;;5.30;2.00;;;;;;;27.71;66.45;100571.72;181189;1259;57999;-89
2023/08/12 07:59:03;;;;;;;4.30;2.80;;;;;;;27.80;66.24;100570.84;181145;1259;43859;-89
2023/08/12 08:03:07;;;;;;;7.60;2.80;;;;;;;27.92;67.11;100570.69;181116;1259;44681;-90
2023/08/12 08:07:11;;;;;;;6.40;3.50;;;;;;;28.00;65.84;100570.56;181148;1262;44168;-90
2023/08/12 08:11:15;;;;;;;4.00;2.40;;;;;;;28.16;65.70;100569.20;181081;1259;44059;-90
2023/08/12 08:15:18;;;;;;;8.20;3.10;;;;;;;28.33;65.81;100560.93;181158;1258;59276;-90
2023/08/12 08:19:22;;;;;;;6.50;2.70;;;;;;;28.52;65.28;100558.29;181177;1259;44023;-90
2023/08/12 08:23:32;;;;;;;5.70;2.30;;;;;;;28.73;63.96;100554.15;181125;1259;44335;-90
2023/08/12 08:27:35;;;;;;;2.80;2.30;;;;;;;28.87;64.20;100549.17;181148;1259;43927;-90
2023/08/12 08:31:39;;;;;;;3.00;2.60;;;;;;;28.98;62.78;100540.86;181155;1259;44415;-90
2023/08/12 08:35:43;;;;;;;4.60;3.40;;;;;;;29.16;63.97;100539.29;181195;1260;58901;-90
2023/08/12 08:39:47;;;;;;;4.50;2.40;;;;;;;29.25;61.85;100540.75;181161;1259;43850;-90
2023/08/12 08:43:52;;;;;;;8.00;2.60;;;;;;;29.31;62.88;100538.67;181037;1259;44249;-90
2023/08/12 08:48:00;;;;;;;6.00;2.50;;;;;;;29.40;62.09;100538.27;181125;1260;44495;-89
2023/08/12 08:52:04;;;;;;;2.50;2.10;;;;;;;29.47;62.07;100540.48;181194;1259;44108;-89
2023/08/12 08:56:11;;;;;;;4.60;2.30;;;;;;;29.46;62.30;100536.64;181233;1260;58045;-88
2023/08/12 09:00:18;;;;;;;2.90;2.40;;;;;;;29.59;59.99;100536.52;181159;1259;43892;-90
2023/08/12 09:04:23;;;;;;;4.20;1.80;;;;;;;29.71;59.05;100533.45;181195;1259;44143;-89
2023/08/12 09:08:29;;;;;;;4.60;2.50;;;;;;;29.90;60.42;100526.79;181186;1260;43874;-89
2023/08/12 09:12:33;;;;;;;3.60;2.20;;;;;;;30.08;59.99;100527.55;181126;1258;44010;-89
2023/08/12 09:16:36;;;;;;;5.40;1.90;;;;;;;30.22;58.62;100521.00;181157;1259;58207;-90
2023/08/12 09:20:43;;;;;;;4.50;2.10;;;;;;;30.39;57.61;100517.18;181052;1261;43842;-89
2023/08/12 09:24:49;;;;;;;4.40;1.80;;;;;;;30.45;59.08;100516.94;181142;1259;43851;-89
2023/08/12 09:28:53;;;;;;;3.90;2.00;;;;;;;30.52;58.05;100519.23;181131;1259;43763;-89
2023/08/12 09:33:00;;;;;;;2.50;2.10;;;;;;;30.60;56.87;100514.17;181119;1259;43760;-89
2023/08/12 09:37:04;;;;;;;2.70;2.20;;;;;;;30.61;56.76;100508.39;181223;1260;59364;-91
2023/08/12 09:41:08;;;;;;;3.20;2.50;;;;;;;30.61;56.22;100504.86;181093;1261;43690;-90
2023/08/12 09:45:13;;;;;;;2.00;1.80;;;;;;;30.56;56.59;100500.56;181147;1258;43907;-90
2023/08/12 09:49:20;;;;;;;10.30;2.80;;;;;;;30.49;57.20;100494.66;181110;1261;43765;-90
2023/08/12 09:53:24;;;;;;;2.60;1.70;;;;;;;30.54;57.04;100491.36;181140;1260;44171;-90
2023/08/12 09:57:32;;;;;;;6.10;2.50;;;;;;;30.55;57.51;100485.67;181077;1259;59222;-91
2023/08/12 10:01:38;;;;;;;3.30;2.00;;;;;;;30.55;56.47;100481.66;181131;1259;44062;-91
2023/08/12 10:05:44;;;;;;;4.00;2.20;;;;;;;30.60;58.14;100479.89;181111;1261;43829;-89
2023/08/12 10:09:48;;;;;;;2.60;1.60;;;;;;;30.64;57.34;100477.58;181089;1259;44068;-90
2023/08/12 10:13:52;;;;;;;1.80;1.40;;;;;;;30.64;58.00;100474.88;181082;1259;44000;-91
2023/08/12 10:17:57;;;;;;;7.80;2.70;;;;;;;30.48;58.20;100477.69;181108;1261;59437;-91
2023/08/12 10:22:03;;;;;;;2.20;2.00;;;;;;;30.44;58.74;100472.46;181131;1259;44162;-90
2023/08/12 10:26:10;;;;;;;2.90;1.80;;;;;;;30.38;56.99;100464.88;181177;1260;43867;-91
2023/08/12 10:30:15;;;;;;;3.10;2.70;;;;;;;30.32;57.06;100461.57;181212;1259;48639;-91
2023/08/12 10:34:25;;;;;;;8.30;2.50;;;;;;;30.38;57.14;100463.77;181214;1261;43724;-92
2023/08/12 10:38:32;;;;;;;5.30;2.30;;;;;;;30.50;56.41;100460.09;181185;1260;59246;-91
2023/08/12 10:42:44;;;;;;;3.00;1.70;;;;;;;30.57;58.04;100452.60;181038;1261;43697;-91
2023/08/12 10:46:51;;;;;;;5.10;3.00;;;;;;;30.73;57.38;100448.75;181006;1260;43737;-89
2023/08/12 10:50:58;;;;;;;4.10;1.90;;;;;;;30.91;56.35;100452.13;180986;1263;44046;-90
2023/08/12 10:55:18;;;;;;;3.00;1.60;;;;;;;30.95;54.88;100444.15;181076;1259;43696;-90
2023/08/12 10:59:45;;;;;;;3.70;1.30;;;;;;;30.98;55.29;100443.64;181227;1263;58321;-91
2023/08/12 11:03:50;;;;;;;1.80;1.70;;;;;;;31.02;55.29;100440.05;181033;1259;43881;-90
2023/08/12 11:07:58;;;;;;;5.50;1.90;;;;;;;31.09;56.92;100442.04;181112;1259;43839;-90
2023/08/12 11:12:02;;;;;;;1.90;1.50;;;;;;;31.18;55.16;100434.66;181237;1260;44269;-91
2023/08/12 11:16:08;;;;;;;4.70;2.00;;;;;;;31.17;55.21;100432.34;181240;1260;43825;-90
2023/08/12 11:20:13;;;;;;;4.50;2.10;;;;;;;31.19;53.48;100424.02;181278;1260;58236;-90
2023/08/12 11:24:17;;;;;;;7.50;2.10;;;;;;;31.25;54.57;100421.77;181181;1260;44272;-91
2023/08/12 11:28:24;;;;;;;4.90;1.90;;;;;;;31.24;53.28;100415.84;181153;1258;44137;-89
2023/08/12 11:32:28;;;;;;;7.50;1.70;;;;;;;31.26;53.73;100411.96;181213;1257;43728;-89
2023/08/12 11:37:03;;;;;;;1.80;1.30;;;;;;;31.33;57.15;100403.04;181494;1259;92779;-66
2023/08/12 11:41:09;;;;;;;11.70;2.40;;;;;;;31.32;52.60;100396.56;181416;1257;58063;-85
2023/08/12 11:45:15;;;;;;;11.70;3.40;;;;;;;31.39;54.98;100387.16;181605;1257;43713;-84
2023/08/12 11:49:19;;;;;;;5.90;1.70;;;;;;;31.56;55.00;100377.61;181370;1257;43815;-85
2023/08/12 11:53:23;;;;;;;3.10;1.60;;;;;;;31.67;53.44;100374.27;181482;1257;44087;-85
2023/08/12 11:57:28;;;;;;;2.60;1.90;;;;;;;31.79;54.85;100369.63;181456;1257;44016;-85
2023/08/12 12:01:31;;;;;;;;;;;;;;;31.90;54.53;100368.27;181586;1257;57786;-86
2023/08/12 12:05:35;;;;;;;5.20;1.70;;;;;;;31.87;52.26;100364.73;181497;1257;43675;-85
2023/08/12 12:09:44;;;;;;;19.20;2.50;;;;;;;31.84;51.49;100360.48;181526;1257;43791;-86
2023/08/12 12:13:47;;;;;;;2.60;1.30;;;;;;;31.91;53.12;100360.90;181626;1257;43356;-86
2023/08/12 12:17:51;;;;;;;3.90;1.40;;;;;;;31.94;53.11;100361.70;181536;1257;43131;-85
2023/08/12 12:21:55;;;;;;;1.70;1.20;;;;;;;32.12;53.29;100358.47;181504;1257;57958;-86
2023/08/12 12:26:02;;;;;;;4.90;1.40;;;;;;;32.22;52.68;100360.66;181648;1257;43822;-86
2023/08/12 12:30:11;;;;;;;5.20;1.80;;;;;;;32.32;50.10;100356.57;181503;1257;43772;-86
2023/08/12 12:34:15;;;;;;;13.90;3.10;;;;;;;32.45;50.84;100351.02;181532;1257;43952;-85
2023/08/12 12:38:20;;;;;;;2.20;1.60;;;;;;;32.51;49.39;100347.66;181729;1257;43167;-86
2023/08/12 12:42:23;;;;;;;2.90;1.00;;;;;;;32.56;52.79;100343.77;181640;1257;57942;-85
2023/08/12 12:46:35;;;;;;;2.40;0.90;;;;;;;32.71;51.13;100338.34;181683;1257;44169;-86
2023/08/12 12:50:39;;;;;;;2.30;1.10;;;;;;;32.79;50.96;100331.19;181730;1257;43756;-86
2023/08/12 12:54:52;;;;;;;2.40;1.10;;;;;;;32.86;50.33;100324.75;181604;1257;43793;-86
2023/08/12 12:58:56;;;;;;;1.60;0.80;;;;;;;32.98;50.46;100321.33;181489;1257;43440;-85
2023/08/12 13:03:11;;;;;;;1.00;0.70;;;;;;;33.00;48.78;100312.88;181386;1257;60495;-86
2023/08/12 13:07:19;;;;;;;2.20;1.00;;;;;;;32.99;48.86;100311.06;181522;1257;43935;-86
2023/08/12 13:11:24;;;;;;;;;;;;;;;33.07;50.43;100311.66;181708;1257;43790;-86
2023/08/12 13:15:33;;;;;;;2.40;0.80;;;;;;;33.18;50.21;100306.09;181433;1257;43003;-86
2023/08/12 13:19:39;;;;;;;1.30;1.00;;;;;;;33.21;46.26;100301.45;181469;1257;43844;-85
2023/08/12 13:23:44;;;;;;;3.50;1.40;;;;;;;33.28;47.96;100298.03;181355;1257;58030;-86
2023/08/12 13:27:52;;;;;;;2.40;0.70;;;;;;;33.37;47.29;100292.60;181477;1256;43778;-86
2023/08/12 13:31:59;;;;;;;0.80;0.80;;;;;;;33.39;47.42;100289.40;181336;1257;43936;-85
2023/08/12 13:36:31;;;;;;;1.70;1.00;;;;;;;33.41;47.23;100285.05;181467;1257;44309;-87
2023/08/12 13:40:38;;;;;;;1.60;0.60;;;;;;;33.50;47.98;100280.09;181373;1257;43560;-86
2023/08/12 13:44:44;;;;;;;8.90;5.10;;;;;;;33.40;45.05;100273.64;181503;1258;57982;-86
2023/08/12 13:48:53;;;;;;;3.60;2.10;;;;;;;33.24;45.24;100267.61;181317;1257;43134;-86
2023/08/12 13:52:58;;;;;;;1.60;1.20;;;;;;;33.19;45.99;100267.67;181543;1258;43667;-86
2023/08/12 13:57:05;;;;;;;1.40;1.30;;;;;;;33.25;48.88;100259.61;181496;1257;44084;-86
2023/08/12 14:01:14;;;;;;;2.50;0.70;;;;;;;33.43;49.40;100253.08;181402;1257;43191;-85
2023/08/12 14:05:19;;;;;;;1.60;1.00;;;;;;;33.43;44.66;100246.13;181456;1259;58624;-86
2023/08/12 14:09:24;;;;;;;0.80;0.60;;;;;;;33.35;43.82;100243.11;181406;1257;44381;-86
2023/08/12 14:13:31;;;;;;;1.30;0.80;;;;;;;33.37;47.29;100240.23;181334;1257;45006;-86
2023/08/12 14:17:35;;;;;;;1.30;0.70;;;;;;;33.29;49.92;100233.21;181364;1257;43955;-85
2023/08/12 14:21:42;;;;;;;2.40;0.80;;;;;;;33.11;47.99;100224.54;181292;1257;43245;-85
2023/08/12 14:25:50;;;;;;;1.50;1.10;;;;;;;32.97;49.72;100214.48;181425;1259;58544;-86
2023/08/12 14:30:00;;;;;;;1.50;1.20;;;;;;;32.81;50.15;100207.93;181277;1257;44038;-86
2023/08/12 14:34:05;;;;;;;4.30;1.40;;;;;;;32.62;49.46;100198.14;181593;1257;44044;-85
2023/08/12 14:38:10;;;;;;;1.50;0.90;;;;;;;32.60;48.86;100198.20;181348;1257;43123;-84
2023/08/12 14:42:15;;;;;;;1.80;0.70;;;;;;;32.67;50.10;100198.14;181446;1257;43767;-85
2023/08/12 14:46:19;;;;;;;17.60;2.80;;;;;;;32.87;49.51;100202.48;181314;1257;58793;-85
2023/08/12 14:50:24;;;;;;;;;;;;;;;33.10;51.74;100198.70;181398;1257;43768;-85
2023/08/12 14:54:28;;;;;;;1.30;1.00;;;;;;;33.28;49.78;100192.91;181522;1257;43798;-85
2023/08/12 14:58:34;;;;;;;5.70;1.80;;;;;;;33.36;49.48;100196.53;181416;1257;43731;-85
2023/08/12 15:02:39;;;;;;;3.30;1.30;;;;;;;33.39;51.59;100198.27;181422;1257;43192;-85
2023/08/12 15:06:47;;;;;;;3.10;2.10;;;;;;;33.54;51.35;100194.16;181578;1257;58331;-85
2023/08/12 15:10:52;;;;;;;2.70;1.10;;;;;;;33.64;50.88;100195.89;181391;1257;43544;-84
2023/08/12 15:14:57;;;;;;;1.80;1.70;;;;;;;33.69;48.31;100192.81;181321;1257;43570;-85
2023/08/12 15:19:02;;;;;;;3.20;2.60;;;;;;;33.65;50.77;100191.30;181336;1257;44340;-86
2023/08/12 15:23:06;;;;;;;4.40;2.10;;;;;;;33.48;49.33;100181.39;181440;1257;43047;-85
2023/08/12 15:27:10;;;;;;;;;;;;;;;33.12;47.70;100180.02;181368;1257;58222;-85
2023/08/12 15:31:15;;;;;;;7.70;2.30;;;;;;;32.86;50.29;100186.02;181633;1257;43507;-84
2023/08/12 15:35:20;;;;;;;2.90;1.70;;;;;;;32.72;51.16;100181.98;181384;1257;43682;-86
2023/08/12 15:39:29;;;;;;;3.20;1.20;;;;;;;32.58;51.62;100176.89;181610;1259;43412;-86
2023/08/12 15:43:33;;;;;;;4.10;1.70;;;;;;;32.58;54.36;100176.52;181300;1258;43703;-87
2023/08/12 15:47:41;;;;;;;2.10;1.50;;;;;;;32.50;51.86;100177.02;181329;1257;60569;-86
2023/08/12 15:51:46;;;;;;;1.20;1.10;;;;;;;32.36;51.62;100174.90;181496;1260;43919;-86
2023/08/12 15:55:52;;;;;;;1.70;1.10;;;;;;;32.14;50.81;100174.05;181314;1257;43265;-85
2023/08/12 15:59:57;;;;;;;3.60;1.20;;;;;;;32.08;52.12;100170.58;181411;1257;43878;-85
2023/08/12 16:04:11;;;;;;;2.70;1.60;;;;;;;32.04;51.02;100165.02;181382;1257;43863;-86
2023/08/12 16:08:20;;;;;;;4.10;1.70;;;;;;;32.02;52.29;100166.45;181538;1257;59391;-86
2023/08/12 16:12:31;;;;;;;2.70;2.20;;;;;;;31.99;52.98;100163.08;181539;1257;43580;-86
2023/08/12 16:16:40;;;;;;;3.20;2.10;;;;;;;31.91;52.39;100160.09;181392;1257;44002;-85
2023/08/12 16:20:44;;;;;;;;;;;;;;;31.82;52.57;100161.02;181358;1257;44073;-86
2023/08/12 16:24:48;;;;;;;9.70;6.60;;;;;;;31.71;51.66;100159.03;181513;1258;43633;-85
2023/08/12 16:28:56;;;;;;;24.80;6.50;;;;;;;31.65;53.00;100160.23;181582;1257;60050;-85
2023/08/12 16:33:04;;;;;;;21.80;4.80;;;;;;;31.52;51.47;100155.79;181397;1257;43923;-85
2023/08/12 16:37:08;;;;;;;4.60;3.10;;;;;;;31.39;52.52;100151.39;181490;1257;43716;-84
2023/08/12 16:41:24;;;;;;;4.60;2.70;;;;;;;31.30;52.84;100153.89;181451;1257;43673;-86
2023/08/12 16:45:28;;;;;;;4.70;3.10;;;;;;;31.16;53.15;100153.69;181411;1257;43082;-85
2023/08/12 16:49:33;;;;;;;7.60;2.90;;;;;;;31.04;53.38;100152.35;181423;1257;58710;-85
2023/08/12 16:53:37;;;;;;;;;;;;;;;30.90;53.78;100152.45;181617;1260;43993;-85
2023/08/12 16:57:44;;;;;;;6.40;2.60;;;;;;;30.83;53.95;100154.21;181430;1257;43509;-86
2023/08/12 17:01:51;;;;;;;6.60;2.90;;;;;;;30.74;54.43;100155.27;181583;1257;43169;-86
2023/08/12 17:05:56;;;;;;;20.70;3.30;;;;;;;30.59;55.22;100151.45;181481;1257;43116;-86
2023/08/12 17:10:00;;;;;;;13.10;3.50;;;;;;;30.43;55.75;100151.10;181314;1257;267398;-86
2023/08/12 17:14:05;;;;;;;5.50;3.30;;;;;;;30.26;56.38;100146.58;181400;1257;44217;-86
2023/08/12 17:18:09;;;;;;;4.00;2.20;;;;;;;30.11;56.73;100146.83;181442;1257;43850;-86
2023/08/12 17:22:14;;;;;;;4.30;2.20;;;;;;;29.93;57.44;100148.44;181388;1258;43711;-85
2023/08/12 17:26:18;;;;;;;3.80;1.60;;;;;;;29.81;57.61;100149.79;181289;1257;44123;-86
2023/08/12 18:09:47;;;;;;;29.30;16.20;;;;;;;28.32;62.13;100162.16;181237;1259;43385;-89
2023/08/12 18:13:51;;;;;;;26.80;16.90;;;;;;;28.17;62.86;100165.13;181038;1260;43931;-89
2023/08/12 18:17:55;;;;;;;13.80;7.70;;;;;;;28.04;63.38;100166.63;181156;1260;43776;-89
2023/08/12 18:21:58;;;;;;;14.70;5.10;;;;;;;27.95;63.53;100174.71;181043;1259;58379;-88
2023/08/12 18:26:02;;;;;;;16.20;6.30;;;;;;;27.87;64.22;100178.05;181101;1260;44054;-88
2023/08/12 18:30:07;;;;;;;21.60;8.20;;;;;;;27.79;64.79;100174.19;181131;1258;43822;-89
2023/08/12 18:34:11;;;;;;;26.00;13.90;;;;;;;27.68;65.39;100169.66;181180;1259;44092;-89
2023/08/12 18:38:14;;;;;;;30.00;14.50;;;;;;;27.54;64.93;100165.70;181168;1259;43876;-89
2023/08/12 18:42:17;;;;;;;31.70;20.20;;;;;;;27.32;64.56;100175.27;181371;1258;58586;-89
2023/08/12 18:46:21;;;;;;;62.40;36.90;;;;;;;27.06;65.38;100186.39;181225;1258;43817;-89
2023/08/12 18:50:25;;;;;;;49.40;27.00;;;;;;;26.80;66.82;100185.02;181174;1259;44013;-89
2023/08/12 18:54:28;;;;;;;36.10;22.40;;;;;;;26.60;68.56;100181.11;181102;1259;44077;-89
2023/08/12 18:58:32;;;;;;;31.70;17.50;;;;;;;26.42;69.77;100183.06;181159;1259;44050;-89
2023/08/12 19:02:35;;;;;;;49.80;17.90;;;;;;;26.31;70.65;100178.96;181076;1259;57946;-88
2023/08/12 19:06:39;;;;;;;41.70;11.70;;;;;;;26.19;72.32;100171.41;181119;1259;43748;-90
2023/08/12 19:10:45;;;;;;;16.70;6.30;;;;;;;25.96;73.21;100173.02;181153;1259;44630;-89
2023/08/12 19:14:48;;;;;;;10.90;6.70;;;;;;;25.75;74.31;100176.04;181275;1259;44257;-89
2023/08/12 19:18:52;;;;;;;13.80;7.80;;;;;;;25.63;74.58;100188.00;181121;1259;49961;-88